Time;durP1;ratioP1;P1;durP2;ratioP2;P2;SDS_P1;SDS_P2;PMS_P1;PMS_P2;Temp;Humidity;BMP_temperature;BMP_pressure;BME280_temperature;BME280_humidity;BME280_pressure;Samples;Min_cycle;Max_cycle;Signal;HPM_P1;HPM_P2
2021/10/05 00:00:23;;;;;;;5.93;4.60;;;21.00;57.50;;;;;;5081548;28;20437;-46
2021/10/05 00:02:49;;;;;;;5.23;4.83;;;21.00;57.50;;;;;;5083787;28;20195;-48
2021/10/05 00:05:15;;;;;;;5.17;4.67;;;21.00;57.00;;;;;;5075803;28;20440;-46
2021/10/05 00:07:40;;;;;;;5.53;5.13;;;21.00;57.10;;;;;;5077523;28;20195;-49
2021/10/05 00:10:08;;;;;;;5.23;4.70;;;21.00;57.20;;;;;;5086771;28;20314;-47
2021/10/05 00:12:34;;;;;;;4.70;4.40;;;21.00;56.90;;;;;;5080264;28;20218;-46
2021/10/05 00:15:00;;;;;;;4.90;4.50;;;21.00;56.80;;;;;;5078925;28;20524;-46
2021/10/05 00:17:26;;;;;;;5.27;4.87;;;20.90;56.70;;;;;;5086341;28;20450;-46
2021/10/05 00:19:51;;;;;;;4.20;3.90;;;20.80;57.00;;;;;;5078944;28;20188;-46
2021/10/05 00:22:17;;;;;;;5.20;4.70;;;20.80;57.50;;;;;;5077304;28;20559;-47
2021/10/05 00:24:43;;;;;;;5.83;4.73;;;20.80;57.30;;;;;;5077944;28;20672;-47
2021/10/05 00:27:09;;;;;;;7.70;3.90;;;20.80;57.10;;;;;;5080841;28;20191;-46
2021/10/05 00:29:34;;;;;;;6.83;5.60;;;20.80;57.40;;;;;;5078930;28;20493;-48
2021/10/05 00:32:00;;;;;;;4.40;4.10;;;20.80;57.60;;;;;;5083094;28;20274;-48
2021/10/05 00:34:26;;;;;;;4.60;4.20;;;20.80;57.40;;;;;;5081516;28;20184;-46
2021/10/05 00:36:52;;;;;;;5.77;5.13;;;20.80;57.90;;;;;;5077509;28;20195;-46
2021/10/05 00:39:18;;;;;;;5.33;4.93;;;20.80;57.20;;;;;;5082219;28;20180;-46
2021/10/05 00:41:44;;;;;;;6.80;4.60;;;20.80;57.30;;;;;;5076339;28;20457;-48
2021/10/05 00:44:10;;;;;;;5.23;4.10;;;20.70;57.20;;;;;;5082653;28;20441;-48
2021/10/05 00:46:35;;;;;;;5.40;5.00;;;20.70;57.70;;;;;;5087824;28;20193;-46
2021/10/05 00:49:02;;;;;;;5.43;4.93;;;20.70;57.90;;;;;;5085798;28;20302;-48
2021/10/05 00:51:28;;;;;;;6.13;5.63;;;20.70;57.50;;;;;;5081488;28;20229;-47
2021/10/05 00:53:54;;;;;;;6.63;5.57;;;20.60;57.10;;;;;;5086923;28;20470;-47
2021/10/05 00:56:21;;;;;;;6.07;5.47;;;20.40;57.30;;;;;;5082564;28;20438;-49
2021/10/05 00:58:47;;;;;;;6.90;6.27;;;20.20;57.70;;;;;;5086573;28;20199;-46
2021/10/05 01:01:12;;;;;;;6.47;5.93;;;20.10;58.30;;;;;;5088145;28;20955;-47
2021/10/05 01:03:39;;;;;;;6.47;5.87;;;19.90;58.80;;;;;;5080652;28;20240;-46
2021/10/05 01:06:05;;;;;;;6.30;5.80;;;19.80;59.30;;;;;;5074812;28;20237;-46
2021/10/05 01:08:32;;;;;;;6.17;5.67;;;19.60;59.60;;;;;;5073621;28;20454;-47
2021/10/05 01:10:58;;;;;;;7.17;6.47;;;19.50;60.00;;;;;;5086665;28;20238;-50
2021/10/05 01:13:24;;;;;;;6.33;5.80;;;19.40;60.30;;;;;;5079320;28;20445;-49
2021/10/05 01:15:49;;;;;;;6.40;5.83;;;19.30;60.60;;;;;;5079256;28;20445;-49
2021/10/05 01:18:15;;;;;;;5.70;5.30;;;19.20;61.10;;;;;;5086236;28;20195;-50
2021/10/05 01:21:03;;;;;;;7.13;6.47;;;19.20;61.40;;;;;;5074503;28;20599;-48
2021/10/05 01:23:29;;;;;;;7.43;6.83;;;19.10;61.60;;;;;;5077967;28;20192;-49
2021/10/05 01:25:56;;;;;;;8.13;7.53;;;19.10;61.90;;;;;;5075491;28;21024;-47
2021/10/05 01:28:23;;;;;;;7.00;6.40;;;19.00;62.20;;;;;;5086494;28;20839;-49
2021/10/05 01:30:49;;;;;;;9.27;8.43;;;18.90;62.40;;;;;;5084087;28;20433;-48
2021/10/05 01:33:15;;;;;;;6.87;6.27;;;18.90;62.60;;;;;;5076132;28;20526;-50
2021/10/05 01:35:41;;;;;;;7.43;6.70;;;18.80;62.70;;;;;;5087791;28;20195;-47
2021/10/05 01:38:06;;;;;;;7.57;6.90;;;18.80;63.10;;;;;;5074659;28;20487;-48
2021/10/05 01:40:32;;;;;;;6.37;5.77;;;18.80;63.40;;;;;;5075142;28;20196;-48
2021/10/05 01:42:58;;;;;;;7.93;6.40;;;18.80;63.60;;;;;;5079629;28;20283;-51
2021/10/05 01:45:23;;;;;;;6.90;6.30;;;18.80;63.60;;;;;;5084772;28;20221;-47
2021/10/05 01:47:49;;;;;;;6.03;5.43;;;18.80;63.60;;;;;;5080420;28;20586;-48
2021/10/05 01:50:15;;;;;;;8.13;7.33;;;18.80;63.80;;;;;;5082033;28;20564;-47
2021/10/05 01:52:40;;;;;;;8.17;7.30;;;18.80;63.90;;;;;;5076175;28;20188;-48
2021/10/05 01:55:08;;;;;;;7.67;6.97;;;18.70;64.00;;;;;;5079575;28;20226;-50
2021/10/05 01:57:34;;;;;;;7.10;6.50;;;18.70;64.10;;;;;;5082258;28;20191;-46
2021/10/05 02:00:00;;;;;;;7.63;7.00;;;18.70;64.30;;;;;;5077082;28;20526;-47
2021/10/05 02:02:26;;;;;;;7.67;7.03;;;18.70;64.40;;;;;;5082975;28;20920;-48
2021/10/05 02:04:51;;;;;;;7.80;7.10;;;18.70;64.40;;;;;;5074207;28;20192;-48
2021/10/05 02:07:17;;;;;;;8.00;7.20;;;18.60;64.40;;;;;;5077874;28;20615;-48
2021/10/05 02:09:47;;;;;;;7.10;6.57;;;18.60;64.80;;;;;;5083164;28;20246;-48
2021/10/05 02:12:15;;;;;;;8.30;7.50;;;18.60;65.10;;;;;;5085213;28;20441;-47
2021/10/05 02:14:42;;;;;;;7.90;7.03;;;18.50;65.20;;;;;;5085711;28;20450;-51
2021/10/05 02:17:07;;;;;;;7.83;7.13;;;18.60;65.30;;;;;;5078736;28;20433;-47
2021/10/05 02:19:33;;;;;;;7.93;7.33;;;18.60;65.20;;;;;;5073783;28;20437;-50
2021/10/05 02:21:59;;;;;;;7.60;6.90;;;18.60;65.00;;;;;;5077480;28;20196;-49
2021/10/05 02:26:51;;;;;;;7.83;7.23;;;18.60;65.00;;;;;;5086254;28;20192;-47
2021/10/05 02:29:18;;;;;;;10.57;8.97;;;18.60;65.00;;;;;;5073601;28;20285;-47
2021/10/05 02:31:44;;;;;;;9.40;8.50;;;18.60;65.10;;;;;;5076306;28;20445;-48
2021/10/05 02:34:10;;;;;;;10.77;9.67;;;18.60;65.30;;;;;;5080784;28;21247;-46
2021/10/05 02:36:35;;;;;;;9.63;8.80;;;18.50;65.40;;;;;;5083009;28;21218;-48
2021/10/05 02:39:02;;;;;;;9.50;8.50;;;18.50;65.40;;;;;;5071993;28;20198;-53
2021/10/05 02:41:27;;;;;;;10.37;9.37;;;18.50;65.50;;;;;;5076442;28;20615;-52
2021/10/05 02:43:53;;;;;;;9.87;8.97;;;18.50;65.70;;;;;;5071469;28;20437;-49
2021/10/05 02:46:19;;;;;;;11.20;9.80;;;18.50;65.80;;;;;;5081341;28;21009;-47
2021/10/05 02:48:44;;;;;;;11.67;10.57;;;18.50;65.80;;;;;;5076178;28;20294;-47
2021/10/05 02:51:10;;;;;;;11.70;10.60;;;18.50;65.60;;;;;;5083305;28;20194;-48
2021/10/05 02:53:35;;;;;;;10.47;9.50;;;18.50;65.60;;;;;;5072963;28;20256;-51
2021/10/05 02:56:01;;;;;;;10.80;9.77;;;18.50;66.10;;;;;;5078094;28;20188;-47
2021/10/05 02:58:27;;;;;;;12.53;11.33;;;18.50;66.00;;;;;;5074565;28;20188;-52
2021/10/05 03:00:52;;;;;;;11.50;10.30;;;18.50;66.00;;;;;;5074554;28;20600;-47
2021/10/05 03:03:18;;;;;;;12.10;10.90;;;18.50;66.00;;;;;;5082927;28;20194;-51
2021/10/05 03:05:43;;;;;;;12.93;11.57;;;18.40;66.00;;;;;;5075638;28;20582;-50
2021/10/05 03:08:09;;;;;;;12.53;11.23;;;18.40;66.10;;;;;;5080865;28;20192;-46
2021/10/05 03:10:35;;;;;;;13.67;12.37;;;18.40;66.00;;;;;;5076631;28;20285;-48
2021/10/05 03:13:01;;;;;;;14.20;12.80;;;18.40;66.00;;;;;;5071880;28;20188;-47
2021/10/05 03:15:27;;;;;;;17.90;12.80;;;18.40;66.00;;;;;;5077088;28;20433;-47
2021/10/05 03:17:53;;;;;;;14.27;12.90;;;18.40;65.90;;;;;;5084423;28;20191;-48
2021/10/05 03:20:18;;;;;;;14.80;13.30;;;18.40;66.10;;;;;;5079542;28;20195;-48
2021/10/05 03:22:44;;;;;;;14.87;13.37;;;18.30;65.90;;;;;;5086398;28;20199;-46
2021/10/05 03:25:10;;;;;;;14.57;13.17;;;18.40;66.00;;;;;;5078320;28;20202;-50
2021/10/05 03:27:35;;;;;;;15.30;13.37;;;18.40;65.90;;;;;;5084514;28;20213;-47
2021/10/05 03:30:03;;;;;;;15.80;14.20;;;18.40;66.00;;;;;;5075916;28;20601;-48
2021/10/05 03:32:29;;;;;;;14.60;13.10;;;18.40;66.10;;;;;;5081524;28;20242;-49
2021/10/05 03:34:55;;;;;;;16.50;14.67;;;18.40;66.10;;;;;;5077441;28;20469;-48
2021/10/05 03:37:20;;;;;;;14.83;13.40;;;18.40;66.20;;;;;;5078801;28;20222;-48
2021/10/05 03:39:46;;;;;;;15.20;13.60;;;18.40;66.30;;;;;;5079502;28;20196;-48
2021/10/05 03:42:11;;;;;;;15.10;13.60;;;18.30;66.00;;;;;;5091852;28;20191;-47
2021/10/05 03:44:37;;;;;;;15.27;13.67;;;18.40;66.00;;;;;;5081723;28;20191;-48
2021/10/05 03:47:03;;;;;;;15.23;13.67;;;18.40;65.90;;;;;;5087759;28;20191;-48
2021/10/05 03:49:29;;;;;;;14.70;12.97;;;18.30;65.90;;;;;;5090783;28;20237;-47
2021/10/05 03:51:54;;;;;;;17.40;15.70;;;18.40;66.00;;;;;;5086632;28;20433;-47
2021/10/05 03:54:20;;;;;;;13.70;12.30;;;18.40;66.20;;;;;;5090543;28;20184;-49
2021/10/05 03:56:45;;;;;;;13.90;12.60;;;18.40;66.20;;;;;;5083487;28;20203;-46
2021/10/05 03:59:15;;;;;;;13.90;12.50;;;18.40;66.20;;;;;;5079286;28;20658;-47
2021/10/05 04:01:42;;;;;;;14.60;13.03;;;18.30;66.20;;;;;;5082176;28;20200;-48
2021/10/05 04:04:08;;;;;;;14.33;12.93;;;18.40;66.40;;;;;;5082444;28;20465;-47
2021/10/05 04:06:34;;;;;;;14.20;12.60;;;18.30;66.70;;;;;;5091415;28;20473;-46
2021/10/05 04:09:03;;;;;;;16.40;14.70;;;18.30;66.70;;;;;;5079805;28;20490;-47
2021/10/05 04:11:29;;;;;;;13.50;12.07;;;18.30;66.70;;;;;;5078479;28;20192;-48
2021/10/05 04:13:54;;;;;;;16.03;14.43;;;18.30;66.70;;;;;;5088350;28;20438;-48
2021/10/05 04:16:20;;;;;;;16.80;13.17;;;18.30;66.70;;;;;;5090775;28;20449;-49
2021/10/05 04:18:45;;;;;;;15.03;13.47;;;18.30;66.50;;;;;;5083173;28;20244;-48
2021/10/05 04:21:11;;;;;;;16.10;14.50;;;18.30;66.70;;;;;;5079787;28;21971;-47
2021/10/05 04:23:37;;;;;;;17.63;14.57;;;18.30;66.70;;;;;;5082751;28;20187;-50
2021/10/05 04:26:02;;;;;;;17.40;15.10;;;18.30;66.60;;;;;;5088347;28;20260;-46
2021/10/05 04:28:28;;;;;;;16.57;14.73;;;18.30;66.50;;;;;;5087979;28;20650;-50
2021/10/05 04:30:54;;;;;;;16.10;14.40;;;18.30;66.50;;;;;;5094599;28;20236;-51
2021/10/05 04:33:19;;;;;;;16.17;14.50;;;18.40;66.50;;;;;;5084201;28;20187;-47
2021/10/05 04:35:45;;;;;;;16.43;13.90;;;18.30;66.70;;;;;;5092342;28;20199;-46
2021/10/05 04:38:10;;;;;;;15.70;14.10;;;18.30;66.70;;;;;;5094513;28;20187;-49
2021/10/05 04:40:36;;;;;;;16.90;15.10;;;18.30;66.80;;;;;;5087234;28;20277;-46
2021/10/05 04:43:02;;;;;;;15.47;13.70;;;18.30;66.70;;;;;;5087423;28;20191;-46
2021/10/05 04:45:28;;;;;;;17.20;14.77;;;18.30;66.60;;;;;;5080395;28;20218;-48
2021/10/05 04:47:54;;;;;;;17.47;14.30;;;18.30;66.60;;;;;;5081519;28;20202;-47
2021/10/05 04:50:19;;;;;;;15.37;13.70;;;18.30;66.60;;;;;;5090584;28;20276;-46
2021/10/05 04:52:45;;;;;;;16.27;14.37;;;18.40;66.70;;;;;;5084471;28;20279;-47
2021/10/05 04:55:11;;;;;;;16.30;14.57;;;18.40;66.70;;;;;;5088190;28;20434;-46
2021/10/05 04:57:37;;;;;;;15.77;13.10;;;18.30;66.70;;;;;;5084991;28;20199;-47
2021/10/05 05:00:05;;;;;;;18.80;14.67;;;18.30;66.60;;;;;;5083227;28;20513;-47
2021/10/05 05:02:31;;;;;;;16.70;14.90;;;18.40;66.70;;;;;;5075648;28;20219;-49
2021/10/05 05:04:56;;;;;;;16.37;14.57;;;18.30;66.50;;;;;;5075690;28;20457;-47
2021/10/05 05:07:22;;;;;;;16.73;14.70;;;18.30;66.60;;;;;;5076885;28;20555;-46
2021/10/05 05:09:48;;;;;;;14.43;12.93;;;18.30;66.70;;;;;;5074281;28;20230;-47
2021/10/05 05:12:13;;;;;;;15.70;14.00;;;18.30;66.80;;;;;;5084683;28;20215;-46
2021/10/05 05:14:39;;;;;;;15.33;13.73;;;18.20;66.80;;;;;;5087412;28;20556;-46
2021/10/05 05:17:04;;;;;;;15.00;13.33;;;18.20;66.80;;;;;;5079128;28;20274;-47
2021/10/05 05:19:30;;;;;;;17.80;14.50;;;18.20;66.70;;;;;;5079079;28;20206;-46
2021/10/05 05:21:59;;;;;;;15.30;12.73;;;18.30;67.00;;;;;;5076050;28;20195;-46
2021/10/05 05:24:28;;;;;;;15.47;13.63;;;18.30;67.10;;;;;;5084399;28;20199;-46
2021/10/05 05:26:54;;;;;;;14.90;13.27;;;18.40;67.20;;;;;;5084806;28;20466;-50
2021/10/05 05:29:20;;;;;;;15.07;13.30;;;18.50;66.90;;;;;;5080652;28;20493;-47
2021/10/05 05:31:47;;;;;;;14.13;12.63;;;18.60;66.50;;;;;;5081935;28;20441;-49
2021/10/05 05:34:13;;;;;;;15.77;12.80;;;18.70;65.90;;;;;;5081369;28;20195;-46
2021/10/05 05:36:39;;;;;;;15.67;12.63;;;18.70;65.80;;;;;;5089193;28;20495;-47
2021/10/05 05:39:05;;;;;;;15.07;13.00;;;18.80;65.50;;;;;;5084464;28;20187;-45
2021/10/05 05:41:30;;;;;;;17.17;13.73;;;18.80;65.40;;;;;;5088784;28;20195;-46
2021/10/05 05:43:56;;;;;;;14.90;12.50;;;18.70;65.10;;;;;;5077575;28;20191;-49
2021/10/05 05:46:22;;;;;;;17.53;12.00;;;18.70;65.10;;;;;;5081910;28;20192;-51
2021/10/05 05:48:47;;;;;;;13.90;12.23;;;18.70;65.30;;;;;;5078529;28;20307;-46
2021/10/05 05:51:13;;;;;;;13.93;12.43;;;18.70;65.10;;;;;;5078583;28;20245;-47
2021/10/05 05:53:39;;;;;;;14.37;12.97;;;18.70;65.30;;;;;;5076443;28;20223;-47
2021/10/05 05:56:04;;;;;;;14.60;13.07;;;18.80;65.30;;;;;;5080696;28;20207;-47
2021/10/05 05:58:30;;;;;;;15.10;12.50;;;18.80;65.20;;;;;;5083075;28;20310;-52
2021/10/05 06:00:56;;;;;;;16.10;12.70;;;18.80;65.20;;;;;;5086743;28;20191;-46
2021/10/05 06:03:21;;;;;;;16.23;13.80;;;18.70;65.30;;;;;;5076944;28;20208;-47
2021/10/05 06:05:47;;;;;;;15.40;13.40;;;18.70;65.30;;;;;;5074831;28;20196;-47
2021/10/05 06:08:13;;;;;;;13.77;12.30;;;18.80;65.10;;;;;;5087355;28;20646;-46
2021/10/05 06:10:39;;;;;;;13.93;12.43;;;18.80;64.80;;;;;;5089061;28;20222;-49
2021/10/05 06:13:05;;;;;;;13.13;11.80;;;18.80;64.80;;;;;;5062351;28;20210;-46
2021/10/05 06:15:30;;;;;;;14.07;12.67;;;18.90;65.10;;;;;;5075464;28;20207;-52
2021/10/05 06:17:56;;;;;;;13.00;11.60;;;18.80;65.80;;;;;;5077177;28;20516;-46
2021/10/05 06:20:24;;;;;;;13.90;11.90;;;18.90;65.00;;;;;;5078314;28;20200;-49
2021/10/05 06:22:50;;;;;;;13.40;12.00;;;18.90;65.20;;;;;;5085673;28;20714;-46
2021/10/05 06:25:20;;;;;;;13.40;11.73;;;18.90;65.30;;;;;;5072530;28;20438;-50
2021/10/05 06:27:45;;;;;;;12.97;11.60;;;18.80;65.20;;;;;;5074634;28;20468;-48
2021/10/05 06:30:14;;;;;;;15.00;13.33;;;18.90;65.30;;;;;;5071918;28;20579;-51
2021/10/05 06:32:40;;;;;;;15.70;13.40;;;18.90;65.20;;;;;;5080890;28;20464;-50
2021/10/05 06:35:07;;;;;;;14.00;12.50;;;18.90;65.20;;;;;;5087327;28;20426;-50
2021/10/05 06:37:33;;;;;;;16.33;12.90;;;18.90;65.30;;;;;;5088525;28;20438;-46
2021/10/05 06:39:58;;;;;;;13.80;12.30;;;18.90;65.30;;;;;;5086674;28;20437;-48
2021/10/05 06:42:24;;;;;;;14.10;12.70;;;18.90;65.30;;;;;;5087434;28;20223;-51
2021/10/05 06:44:49;;;;;;;14.57;12.70;;;19.00;65.20;;;;;;5075003;28;20187;-51
2021/10/05 06:47:15;;;;;;;14.10;12.20;;;19.00;65.20;;;;;;5087472;28;20188;-47
2021/10/05 06:49:41;;;;;;;15.23;13.20;;;19.00;65.20;;;;;;5081408;28;20702;-47
2021/10/05 06:52:06;;;;;;;14.80;12.43;;;19.00;65.10;;;;;;5087648;28;20241;-50
2021/10/05 06:54:32;;;;;;;15.57;13.60;;;19.00;65.30;;;;;;5089009;28;20187;-51
2021/10/05 06:56:58;;;;;;;13.23;11.20;;;19.00;65.50;;;;;;5084034;28;20284;-50
2021/10/05 06:59:24;;;;;;;15.00;13.37;;;19.00;65.50;;;;;;5082371;28;20260;-46
2021/10/05 07:01:50;;;;;;;14.90;13.30;;;19.00;65.50;;;;;;5085061;28;20430;-50
2021/10/05 07:04:16;;;;;;;13.33;11.90;;;19.10;65.70;;;;;;5086554;28;20209;-49
2021/10/05 07:06:42;;;;;;;15.70;12.97;;;19.10;66.00;;;;;;5089125;28;20889;-46
2021/10/05 07:09:08;;;;;;;14.93;12.20;;;19.20;65.00;;;;;;5087464;28;20231;-50
2021/10/05 07:11:34;;;;;;;14.17;11.60;;;19.20;64.40;;;;;;5078935;28;20449;-48
2021/10/05 07:14:01;;;;;;;14.57;12.20;;;19.20;64.30;;;;;;5087724;28;20429;-48
2021/10/05 07:16:27;;;;;;;12.70;11.40;;;19.20;64.30;;;;;;5085700;28;20835;-49
2021/10/05 07:18:53;;;;;;;15.40;12.57;;;19.20;64.30;;;;;;5088754;28;20440;-52
2021/10/05 07:21:20;;;;;;;13.47;10.77;;;19.30;64.60;;;;;;5089730;28;20429;-47
2021/10/05 07:23:45;;;;;;;13.93;12.10;;;19.30;64.70;;;;;;5087443;28;20183;-48
2021/10/05 07:26:11;;;;;;;13.73;10.87;;;19.30;64.40;;;;;;5078317;28;20442;-47
2021/10/05 07:28:37;;;;;;;13.10;11.40;;;19.40;63.90;;;;;;5082677;28;20757;-48
2021/10/05 07:31:02;;;;;;;12.90;11.10;;;19.40;63.70;;;;;;5086438;28;20677;-50
2021/10/05 07:33:28;;;;;;;13.90;11.20;;;19.40;63.20;;;;;;5083996;28;20206;-46
2021/10/05 07:35:54;;;;;;;14.57;13.00;;;19.50;63.30;;;;;;5086920;28;20214;-47
2021/10/05 07:38:21;;;;;;;13.53;11.70;;;19.50;63.50;;;;;;5088143;28;20710;-50
2021/10/05 07:40:47;;;;;;;15.30;13.60;;;19.50;63.40;;;;;;5084359;28;20460;-47
2021/10/05 07:43:12;;;;;;;12.37;11.07;;;19.60;63.20;;;;;;5082529;28;20457;-47
2021/10/05 07:45:38;;;;;;;12.10;10.80;;;19.60;63.30;;;;;;5086275;28;20224;-48
2021/10/05 07:48:05;;;;;;;14.20;11.47;;;19.60;63.30;;;;;;5089845;28;20187;-47
2021/10/05 07:50:33;;;;;;;12.97;11.50;;;19.60;62.80;;;;;;5087960;28;20999;-46
2021/10/05 07:52:59;;;;;;;11.53;10.33;;;19.60;62.70;;;;;;5067416;28;21208;-50
2021/10/05 07:55:26;;;;;;;14.30;12.43;;;19.60;62.60;;;;;;5087044;28;20440;-48
2021/10/05 07:57:52;;;;;;;13.07;11.20;;;19.70;62.70;;;;;;5083762;28;20838;-52
2021/10/05 08:00:17;;;;;;;11.00;9.17;;;19.70;62.20;;;;;;5086160;28;20437;-52
2021/10/05 08:02:45;;;;;;;12.17;10.50;;;19.70;62.10;;;;;;5079659;28;20183;-49
2021/10/05 08:05:11;;;;;;;12.93;9.10;;;19.80;62.00;;;;;;5088970;28;20325;-52
2021/10/05 08:07:37;;;;;;;14.23;11.13;;;19.80;61.90;;;;;;5084225;28;20503;-50
2021/10/05 08:10:03;;;;;;;11.47;9.90;;;19.80;61.60;;;;;;5086035;28;20477;-52
2021/10/05 08:12:28;;;;;;;11.90;10.77;;;19.80;61.50;;;;;;5082762;28;20206;-50
2021/10/05 08:14:55;;;;;;;11.20;9.50;;;19.80;61.70;;;;;;5080138;28;20293;-52
2021/10/05 08:17:21;;;;;;;11.60;10.40;;;19.80;61.30;;;;;;5084857;28;20702;-49
2021/10/05 08:19:47;;;;;;;9.80;8.80;;;19.80;61.10;;;;;;5081181;28;20500;-48
2021/10/05 08:22:13;;;;;;;13.07;10.13;;;19.70;61.70;;;;;;5087695;28;20565;-47
2021/10/05 08:24:38;;;;;;;10.73;9.70;;;19.80;61.70;;;;;;5083209;28;20444;-48
2021/10/05 08:27:05;;;;;;;11.20;10.00;;;19.80;61.40;;;;;;5078092;28;20191;-48
2021/10/05 08:29:37;;;;;;;10.53;9.23;;;19.90;61.40;;;;;;5067300;28;20288;-46
2021/10/05 08:32:07;;;;;;;10.60;9.27;;;19.90;61.60;;;;;;5084990;28;20850;-47
2021/10/05 08:34:33;;;;;;;12.80;10.67;;;19.90;61.60;;;;;;5085010;28;20441;-49
2021/10/05 08:36:59;;;;;;;8.80;7.90;;;19.90;61.30;;;;;;5089296;28;20951;-47
2021/10/05 08:39:24;;;;;;;11.60;10.40;;;19.90;61.60;;;;;;5087707;28;20433;-46
2021/10/05 08:41:50;;;;;;;12.40;9.97;;;19.90;61.60;;;;;;5084170;28;20647;-50
2021/10/05 08:44:16;;;;;;;9.57;8.60;;;20.00;61.80;;;;;;5085610;28;20183;-47
2021/10/05 08:46:43;;;;;;;10.00;8.60;;;20.10;61.90;;;;;;5082905;28;20270;-46
2021/10/05 08:49:08;;;;;;;10.20;8.20;;;20.10;62.00;;;;;;5088299;28;20503;-46
2021/10/05 08:51:35;;;;;;;8.57;7.77;;;20.10;61.60;;;;;;5080937;28;20434;-49
2021/10/05 08:54:01;;;;;;;8.07;7.27;;;20.10;61.70;;;;;;5081360;28;20191;-49
2021/10/05 08:56:27;;;;;;;7.77;6.90;;;20.10;61.80;;;;;;5087488;28;20445;-45
2021/10/05 08:58:52;;;;;;;5.47;4.90;;;20.10;61.70;;;;;;5070253;28;20226;-49
2021/10/05 09:01:19;;;;;;;7.70;7.00;;;20.00;61.50;;;;;;5088956;28;20236;-47
2021/10/05 09:03:49;;;;;;;8.23;7.37;;;20.10;60.90;;;;;;5088913;28;20725;-51
2021/10/05 09:06:15;;;;;;;6.93;6.20;;;20.00;60.80;;;;;;5075288;28;20845;-50
2021/10/05 09:08:43;;;;;;;6.73;6.07;;;20.10;61.40;;;;;;5080105;28;20441;-46
2021/10/05 09:11:09;;;;;;;6.33;5.73;;;20.10;61.30;;;;;;5085547;28;20424;-48
2021/10/05 09:13:41;;;;;;;6.43;5.73;;;20.10;61.10;;;;;;5085959;28;20433;-47
2021/10/05 09:16:19;;;;;;;5.93;5.37;;;20.10;61.10;;;;;;5092035;28;20441;-47
2021/10/05 09:19:02;;;;;;;5.70;5.20;;;20.10;61.10;;;;;;5081344;28;20441;-48
2021/10/05 09:21:31;;;;;;;5.87;5.23;;;20.10;61.00;;;;;;5091022;28;20540;-47
2021/10/05 09:23:58;;;;;;;5.57;5.07;;;20.10;61.30;;;;;;5088922;28;20433;-46
2021/10/05 09:26:49;;;;;;;5.37;3.80;;;20.10;60.80;;;;;;5089893;28;20434;-46
2021/10/05 09:29:36;;;;;;;4.80;4.40;;;20.10;61.00;;;;;;5087516;28;20499;-47
2021/10/05 09:32:11;;;;;;;5.53;5.03;;;20.10;61.00;;;;;;5089939;28;20434;-49
2021/10/05 09:34:57;;;;;;;5.37;4.87;;;20.00;61.50;;;;;;5084300;28;20460;-49
2021/10/05 09:37:31;;;;;;;4.10;3.80;;;20.10;61.30;;;;;;5082920;28;20970;-46
2021/10/05 09:40:10;;;;;;;4.50;4.13;;;20.00;61.50;;;;;;5081178;28;20515;-45
2021/10/05 09:42:43;;;;;;;8.13;4.73;;;20.10;61.10;;;;;;5077504;28;20452;-46
2021/10/05 09:45:10;;;;;;;4.80;4.20;;;20.10;61.10;;;;;;5088556;28;20524;-47
2021/10/05 09:47:44;;;;;;;5.90;4.80;;;20.10;61.30;;;;;;5087887;28;20445;-46
2021/10/05 09:50:22;;;;;;;5.10;4.70;;;20.10;61.20;;;;;;5089265;28;20816;-47
2021/10/05 09:52:48;;;;;;;4.90;4.50;;;20.20;61.20;;;;;;5085904;28;20952;-46
2021/10/05 09:55:16;;;;;;;4.30;3.90;;;20.20;61.30;;;;;;5089818;28;20436;-46
2021/10/05 09:57:41;;;;;;;4.37;3.97;;;20.20;61.30;;;;;;5085627;28;20960;-45
2021/10/05 10:00:09;;;;;;;4.20;3.90;;;20.10;60.90;;;;;;5081035;28;20434;-48
2021/10/05 10:02:40;;;;;;;4.50;4.10;;;20.10;61.20;;;;;;5083961;28;20561;-46
2021/10/05 10:05:08;;;;;;;3.97;3.67;;;20.10;61.70;;;;;;5085989;28;20960;-46
2021/10/05 10:07:57;;;;;;;6.30;4.60;;;19.80;61.80;;;;;;5087310;28;20437;-45
2021/10/05 10:10:30;;;;;;;4.17;3.87;;;19.70;62.90;;;;;;5069336;28;20496;-47
2021/10/05 10:13:00;;;;;;;3.83;3.40;;;19.70;63.00;;;;;;5070879;28;20438;-45
2021/10/05 10:15:34;;;;;;;3.57;3.27;;;19.40;62.80;;;;;;5081656;28;20437;-45
2021/10/05 10:18:17;;;;;;;4.40;3.83;;;19.50;63.10;;;;;;5082388;28;20475;-46
2021/10/05 10:20:54;;;;;;;5.20;4.43;;;19.60;63.90;;;;;;5084177;28;20453;-45
2021/10/05 10:23:21;;;;;;;5.40;4.40;;;19.80;63.30;;;;;;5085522;28;20849;-45
2021/10/05 10:25:56;;;;;;;3.80;3.50;;;19.60;62.90;;;;;;5090519;28;20433;-45
2021/10/05 10:28:37;;;;;;;3.40;3.20;;;19.30;63.10;;;;;;5080469;28;20493;-45
2021/10/05 10:31:09;;;;;;;3.30;3.10;;;19.20;64.00;;;;;;5071874;28;20442;-45
2021/10/05 10:33:51;;;;;;;3.97;3.67;;;19.10;63.30;;;;;;5080450;28;20553;-46
2021/10/05 10:36:28;;;;;;;3.83;3.53;;;19.10;64.30;;;;;;5088487;28;20987;-46
2021/10/05 10:39:24;;;;;;;4.57;4.17;;;19.20;64.80;;;;;;5085597;28;20836;-46
2021/10/05 10:41:53;;;;;;;2.80;2.60;;;19.40;64.70;;;;;;5077898;28;20434;-47
2021/10/05 10:44:29;;;;;;;4.50;3.03;;;19.70;65.10;;;;;;5085774;28;20468;-46
2021/10/05 10:47:05;;;;;;;4.70;3.30;;;20.10;64.80;;;;;;5084778;28;20426;-46
2021/10/05 10:49:30;;;;;;;3.90;3.60;;;20.50;62.10;;;;;;5074383;28;20481;-48
2021/10/05 10:51:56;;;;;;;4.73;3.20;;;20.70;60.50;;;;;;5078266;28;20445;-49
2021/10/05 10:54:23;;;;;;;3.50;2.40;;;20.90;61.20;;;;;;5089994;28;20702;-46
2021/10/05 10:57:11;;;;;;;5.03;2.23;;;21.10;60.40;;;;;;5089447;28;20599;-46
2021/10/05 10:59:36;;;;;;;3.67;1.80;;;21.20;60.10;;;;;;5073148;28;20544;-46
2021/10/05 11:02:06;;;;;;;2.80;2.60;;;21.40;60.10;;;;;;5077394;28;20438;-47
2021/10/05 11:04:34;;;;;;;2.50;2.07;;;21.40;58.80;;;;;;5080517;28;20245;-46
2021/10/05 11:07:00;;;;;;;2.50;2.30;;;21.50;58.20;;;;;;5083872;28;20975;-47
2021/10/05 11:09:36;;;;;;;2.47;2.27;;;21.60;58.70;;;;;;5087173;28;20876;-46
2021/10/05 11:12:07;;;;;;;1.90;1.80;;;21.80;58.40;;;;;;5078940;28;20455;-47
2021/10/05 11:14:41;;;;;;;8.13;2.43;;;21.80;56.90;;;;;;5090517;28;20465;-46
2021/10/05 11:17:09;;;;;;;3.30;2.20;;;21.80;57.60;;;;;;5083264;28;20430;-46
2021/10/05 11:19:39;;;;;;;6.50;2.87;;;21.70;56.80;;;;;;5082978;28;20923;-46
2021/10/05 11:22:10;;;;;;;3.70;2.13;;;21.70;56.90;;;;;;5089515;28;20552;-46
2021/10/05 11:24:45;;;;;;;3.13;1.97;;;21.40;56.70;;;;;;5083386;28;20521;-46
2021/10/05 11:27:17;;;;;;;1.90;1.70;;;21.30;57.90;;;;;;5089734;28;20437;-48
2021/10/05 11:29:44;;;;;;;2.40;2.30;;;21.20;58.10;;;;;;5084447;28;20485;-47
2021/10/05 11:32:14;;;;;;;2.43;1.57;;;21.10;57.90;;;;;;5077505;28;20438;-46
2021/10/05 11:34:42;;;;;;;2.93;1.47;;;21.20;58.70;;;;;;5083373;28;20487;-47
2021/10/05 11:37:10;;;;;;;1.80;1.70;;;21.40;58.30;;;;;;5076888;28;20429;-48
2021/10/05 11:39:38;;;;;;;4.10;1.63;;;21.50;57.70;;;;;;5077994;28;20438;-48
2021/10/05 11:42:13;;;;;;;12.40;3.57;;;21.60;57.40;;;;;;5077735;28;20473;-48
2021/10/05 11:44:40;;;;;;;1.63;1.47;;;21.70;57.20;;;;;;5077906;28;20491;-49
2021/10/05 11:47:08;;;;;;;2.30;1.70;;;21.60;57.30;;;;;;5075585;28;20514;-48
2021/10/05 11:49:46;;;;;;;2.80;1.97;;;21.60;57.40;;;;;;5087107;28;20489;-48
2021/10/05 11:52:17;;;;;;;1.17;1.13;;;21.70;57.50;;;;;;5080767;28;20918;-48
2021/10/05 11:54:43;;;;;;;1.20;1.10;;;21.70;57.00;;;;;;5088541;28;20475;-47
2021/10/05 11:57:19;;;;;;;1.43;1.33;;;21.80;56.30;;;;;;5089658;28;20832;-47
2021/10/05 11:59:46;;;;;;;7.03;2.57;;;21.90;56.40;;;;;;5080106;28;20685;-47
2021/10/05 12:02:18;;;;;;;5.47;1.73;;;22.00;56.10;;;;;;5086309;28;20435;-50
2021/10/05 12:04:47;;;;;;;1.80;1.70;;;22.20;56.10;;;;;;5089961;28;20432;-48
2021/10/05 12:07:19;;;;;;;1.50;1.40;;;22.00;55.50;;;;;;5087700;28;20444;-48
2021/10/05 12:09:57;;;;;;;2.63;1.60;;;22.00;55.40;;;;;;5080785;28;20493;-46
2021/10/05 12:12:27;;;;;;;1.67;1.57;;;22.00;55.60;;;;;;5082289;28;20448;-47
2021/10/05 12:14:57;;;;;;;1.33;1.23;;;22.00;55.80;;;;;;5084551;28;20428;-46
2021/10/05 12:17:25;;;;;;;1.80;1.30;;;22.10;56.00;;;;;;5082310;28;20429;-51
2021/10/05 12:19:58;;;;;;;1.63;1.53;;;22.30;56.10;;;;;;5079062;28;20418;-50
2021/10/05 12:22:27;;;;;;;5.33;1.90;;;22.30;55.90;;;;;;5075778;28;20487;-46
2021/10/05 12:25:01;;;;;;;3.83;1.70;;;22.30;55.80;;;;;;5086161;28;20882;-47
2021/10/05 12:27:26;;;;;;;1.60;1.50;;;22.10;55.80;;;;;;5087404;28;20445;-46
2021/10/05 12:30:08;;;;;;;1.30;1.20;;;22.10;56.00;;;;;;5086877;28;21108;-46
2021/10/05 12:32:39;;;;;;;5.13;1.50;;;22.10;55.70;;;;;;5080462;28;20184;-47
2021/10/05 12:35:18;;;;;;;1.90;1.30;;;22.10;56.10;;;;;;5080552;28;20528;-47
2021/10/05 12:37:44;;;;;;;2.20;1.30;;;22.20;56.10;;;;;;5083312;28;20436;-47
2021/10/05 12:40:10;;;;;;;3.23;1.30;;;22.20;55.60;;;;;;5090399;28;20429;-48
2021/10/05 12:42:41;;;;;;;1.37;1.00;;;22.20;55.40;;;;;;5072128;28;20465;-48